Decoded Metar for LZTT (POPRAD in SLOVAKIA) (IATA:TAT) | Meteo·Mobile Aviation Weather
aviador You're here:

LZTT Decoded Metar

POPRAD in SLOVAKIA
Report Time2019-04-19 22:00:00
UTC Time2019-04-19 22:31:15
Flight Rules vfr VFR
Wind290° at 03 kt
W.Decomp.*RWY 27: 2.9 kt HW 0.8 kt RCW
RWY 25: 2.4 kt HW 1.8 kt RCW
Visibility9999 m
Phenomena:N/A
Clouds:N/A
Expected CloudBase > 2,000 ft AGL from Temp-Dew spread
CeilingNone
Temp01°C (ISA -9)
Dew Point-4°C (70% RH)
AAT-2.6°C
QNH1030 hPa
Density Alt676 ft
Elevation2,320 ft
Report Wrong Elevation
Raw Report
LZTT 192200Z 29003KT CAVOK 01/M04 Q1030=

Extra information for LZTT:More info

Metar Taf Metar & Taf Last 4 Metars F.Rules Stats Wind Profile Meteogram Temp Stats Airport Information Weather charts Add Link Nearby VenuesMetar ALERT Operation Metar Decoded Social comments